sensor_id;sensor_type;location;lat;lon;timestamp;pressure;altitude;pressure_sealevel;temperature;humidity
48968;BME280;46511;53.148;8.204;2024-01-15T00:00:59;99633.16;;;3.42;100.00
48968;BME280;46511;53.148;8.204;2024-01-15T00:03:30;99627.31;;;3.54;100.00
48968;BME280;46511;53.148;8.204;2024-01-15T00:06:02;99625.03;;;3.47;100.00
48968;BME280;46511;53.148;8.204;2024-01-15T00:08:33;99624.19;;;3.46;100.00
48968;BME280;46511;53.148;8.204;2024-01-15T00:11:04;99616.06;;;3.69;100.00
48968;BME280;46511;53.148;8.204;2024-01-15T00:13:36;99606.16;;;3.38;100.00
48968;BME280;46511;53.148;8.204;2024-01-15T00:16:07;99624.41;;;3.23;100.00
48968;BME280;46511;53.148;8.204;2024-01-15T00:18:38;99611.13;;;3.82;100.00
48968;BME280;46511;53.148;8.204;2024-01-15T00:21:05;99619.78;;;3.47;100.00
48968;BME280;46511;53.148;8.204;2024-01-15T00:23:36;99615.03;;;3.55;100.00
48968;BME280;46511;53.148;8.204;2024-01-15T00:26:07;99629.72;;;3.01;100.00
48968;BME280;46511;53.148;8.204;2024-01-15T00:28:38;99625.66;;;3.14;100.00
48968;BME280;46511;53.148;8.204;2024-01-15T00:31:10;99613.25;;;3.18;100.00
48968;BME280;46511;53.148;8.204;2024-01-15T00:33:36;99617.66;;;3.36;100.00
48968;BME280;46511;53.148;8.204;2024-01-15T00:36:07;99615.66;;;3.03;100.00
48968;BME280;46511;53.148;8.204;2024-01-15T00:38:39;99607.41;;;3.11;100.00
48968;BME280;46511;53.148;8.204;2024-01-15T00:41:10;99610.78;;;3.52;100.00
48968;BME280;46511;53.148;8.204;2024-01-15T00:43:41;99598.09;;;3.43;100.00
48968;BME280;46511;53.148;8.204;2024-01-15T00:46:13;99603.00;;;3.32;100.00
48968;BME280;46511;53.148;8.204;2024-01-15T00:48:44;99611.63;;;3.53;100.00
48968;BME280;46511;53.148;8.204;2024-01-15T00:51:16;99603.81;;;3.13;100.00
48968;BME280;46511;53.148;8.204;2024-01-15T00:53:47;99599.78;;;3.44;100.00
48968;BME280;46511;53.148;8.204;2024-01-15T00:56:19;99597.13;;;3.06;100.00
48968;BME280;46511;53.148;8.204;2024-01-15T00:58:50;99585.97;;;3.01;100.00
48968;BME280;46511;53.148;8.204;2024-01-15T01:01:21;99584.72;;;3.48;100.00
48968;BME280;46511;53.148;8.204;2024-01-15T01:03:53;99578.22;;;3.19;100.00
48968;BME280;46511;53.148;8.204;2024-01-15T01:06:24;99582.88;;;3.31;100.00
48968;BME280;46511;53.148;8.204;2024-01-15T01:08:56;99592.53;;;3.49;100.00
48968;BME280;46511;53.148;8.204;2024-01-15T01:11:27;99579.47;;;3.10;100.00
48968;BME280;46511;53.148;8.204;2024-01-15T01:13:58;99581.75;;;3.55;100.00
48968;BME280;46511;53.148;8.204;2024-01-15T01:16:30;99565.28;;;2.95;100.00
48968;BME280;46511;53.148;8.204;2024-01-15T01:19:02;99567.00;;;3.34;100.00
48968;BME280;46511;53.148;8.204;2024-01-15T01:21:34;99573.69;;;3.03;100.00
48968;BME280;46511;53.148;8.204;2024-01-15T01:24:05;99559.13;;;3.34;100.00
48968;BME280;46511;53.148;8.204;2024-01-15T01:26:37;99565.09;;;3.19;100.00
48968;BME280;46511;53.148;8.204;2024-01-15T01:29:08;99556.94;;;3.25;100.00
48968;BME280;46511;53.148;8.204;2024-01-15T01:31:45;99548.41;;;3.20;100.00
48968;BME280;46511;53.148;8.204;2024-01-15T01:34:17;99549.84;;;3.46;100.00
48968;BME280;46511;53.148;8.204;2024-01-15T01:36:48;99546.78;;;3.55;100.00
48968;BME280;46511;53.148;8.204;2024-01-15T01:39:15;99549.31;;;3.56;100.00
48968;BME280;46511;53.148;8.204;2024-01-15T01:41:46;99547.00;;;3.31;100.00
48968;BME280;46511;53.148;8.204;2024-01-15T01:44:18;99544.31;;;3.33;100.00
48968;BME280;46511;53.148;8.204;2024-01-15T01:46:44;99553.25;;;3.29;100.00
48968;BME280;46511;53.148;8.204;2024-01-15T01:49:15;99552.13;;;3.15;100.00
48968;BME280;46511;53.148;8.204;2024-01-15T01:51:47;99543.59;;;3.29;100.00
48968;BME280;46511;53.148;8.204;2024-01-15T01:54:19;99547.22;;;3.46;100.00
48968;BME280;46511;53.148;8.204;2024-01-15T01:56:51;99544.59;;;3.46;100.00
48968;BME280;46511;53.148;8.204;2024-01-15T01:59:23;99549.59;;;3.86;100.00
48968;BME280;46511;53.148;8.204;2024-01-15T02:01:58;99535.91;;;3.62;100.00
48968;BME280;46511;53.148;8.204;2024-01-15T02:04:34;99539.22;;;3.66;100.00
48968;BME280;46511;53.148;8.204;2024-01-15T02:07:07;99532.78;;;3.90;100.00
48968;BME280;46511;53.148;8.204;2024-01-15T02:09:41;99531.00;;;3.91;100.00
48968;BME280;46511;53.148;8.204;2024-01-15T02:12:12;99531.53;;;3.44;100.00
48968;BME280;46511;53.148;8.204;2024-01-15T02:14:44;99542.97;;;3.43;100.00
48968;BME280;46511;53.148;8.204;2024-01-15T02:17:15;99531.91;;;3.72;100.00
48968;BME280;46511;53.148;8.204;2024-01-15T02:19:46;99546.13;;;3.31;100.00
48968;BME280;46511;53.148;8.204;2024-01-15T02:22:18;99545.16;;;3.14;100.00
48968;BME280;46511;53.148;8.204;2024-01-15T02:24:49;99542.88;;;2.88;100.00
48968;BME280;46511;53.148;8.204;2024-01-15T02:27:20;99535.94;;;3.06;100.00
48968;BME280;46511;53.148;8.204;2024-01-15T02:29:52;99550.88;;;2.85;100.00
48968;BME280;46511;53.148;8.204;2024-01-15T02:32:19;99557.44;;;3.33;100.00
48968;BME280;46511;53.148;8.204;2024-01-15T02:34:50;99558.47;;;3.66;100.00
48968;BME280;46511;53.148;8.204;2024-01-15T02:37:21;99573.13;;;3.34;100.00
48968;BME280;46511;53.148;8.204;2024-01-15T02:39:53;99572.59;;;3.64;100.00
48968;BME280;46511;53.148;8.204;2024-01-15T02:42:25;99555.06;;;3.64;100.00
48968;BME280;46511;53.148;8.204;2024-01-15T02:44:57;99553.81;;;3.35;100.00
48968;BME280;46511;53.148;8.204;2024-01-15T02:47:28;99555.13;;;3.63;100.00
48968;BME280;46511;53.148;8.204;2024-01-15T02:50:00;99558.75;;;3.79;100.00
48968;BME280;46511;53.148;8.204;2024-01-15T02:52:31;99559.19;;;3.70;100.00
48968;BME280;46511;53.148;8.204;2024-01-15T02:55:02;99555.03;;;3.83;100.00
48968;BME280;46511;53.148;8.204;2024-01-15T02:57:29;99541.09;;;3.64;100.00
48968;BME280;46511;53.148;8.204;2024-01-15T03:00:00;99555.00;;;3.47;100.00
48968;BME280;46511;53.148;8.204;2024-01-15T03:02:32;99566.81;;;3.75;100.00
48968;BME280;46511;53.148;8.204;2024-01-15T03:05:03;99565.84;;;3.39;100.00
48968;BME280;46511;53.148;8.204;2024-01-15T03:07:34;99565.84;;;3.39;100.00
48968;BME280;46511;53.148;8.204;2024-01-15T03:10:06;99562.75;;;3.31;100.00
48968;BME280;46511;53.148;8.204;2024-01-15T03:12:38;99563.47;;;3.35;100.00
48968;BME280;46511;53.148;8.204;2024-01-15T03:15:09;99557.47;;;3.50;100.00
48968;BME280;46511;53.148;8.204;2024-01-15T03:17:36;99556.13;;;3.79;100.00
48968;BME280;46511;53.148;8.204;2024-01-15T03:20:07;99551.22;;;3.71;100.00
48968;BME280;46511;53.148;8.204;2024-01-15T03:22:39;99545.38;;;3.84;100.00
48968;BME280;46511;53.148;8.204;2024-01-15T03:25:10;99543.63;;;3.65;100.00
48968;BME280;46511;53.148;8.204;2024-01-15T03:27:41;99552.47;;;3.82;100.00
48968;BME280;46511;53.148;8.204;2024-01-15T03:30:13;99539.13;;;3.31;100.00
48968;BME280;46511;53.148;8.204;2024-01-15T03:32:44;99548.38;;;3.57;100.00
48968;BME280;46511;53.148;8.204;2024-01-15T03:35:16;99553.78;;;3.54;100.00
48968;BME280;46511;53.148;8.204;2024-01-15T03:37:47;99547.47;;;3.58;100.00
48968;BME280;46511;53.148;8.204;2024-01-15T03:40:19;99555.19;;;3.97;100.00
48968;BME280;46511;53.148;8.204;2024-01-15T03:42:50;99551.84;;;3.77;100.00
48968;BME280;46511;53.148;8.204;2024-01-15T03:45:22;99544.41;;;3.67;100.00
48968;BME280;46511;53.148;8.204;2024-01-15T03:47:54;99552.59;;;3.61;100.00
48968;BME280;46511;53.148;8.204;2024-01-15T03:50:25;99542.28;;;3.57;100.00
48968;BME280;46511;53.148;8.204;2024-01-15T03:52:57;99538.34;;;3.29;100.00
48968;BME280;46511;53.148;8.204;2024-01-15T03:55:28;99552.53;;;3.44;100.00
48968;BME280;46511;53.148;8.204;2024-01-15T03:57:59;99563.66;;;3.49;100.00
48968;BME280;46511;53.148;8.204;2024-01-15T04:00:31;99554.78;;;3.70;100.00
48968;BME280;46511;53.148;8.204;2024-01-15T04:03:02;99572.41;;;3.86;100.00
48968;BME280;46511;53.148;8.204;2024-01-15T04:05:33;99581.09;;;4.05;100.00
48968;BME280;46511;53.148;8.204;2024-01-15T04:08:05;99586.75;;;4.15;100.00
48968;BME280;46511;53.148;8.204;2024-01-15T04:10:37;99577.38;;;3.92;100.00
48968;BME280;46511;53.148;8.204;2024-01-15T04:13:08;99592.38;;;3.90;100.00
48968;BME280;46511;53.148;8.204;2024-01-15T04:15:40;99598.81;;;4.19;100.00
48968;BME280;46511;53.148;8.204;2024-01-15T04:18:11;99572.28;;;4.06;100.00
48968;BME280;46511;53.148;8.204;2024-01-15T04:20:42;99574.03;;;3.88;100.00
48968;BME280;46511;53.148;8.204;2024-01-15T04:23:14;99568.53;;;3.76;100.00
48968;BME280;46511;53.148;8.204;2024-01-15T04:25:45;99556.47;;;3.71;100.00
48968;BME280;46511;53.148;8.204;2024-01-15T04:28:16;99557.28;;;3.91;100.00
48968;BME280;46511;53.148;8.204;2024-01-15T04:30:48;99563.28;;;3.57;100.00
48968;BME280;46511;53.148;8.204;2024-01-15T04:33:19;99556.75;;;3.65;100.00
48968;BME280;46511;53.148;8.204;2024-01-15T04:35:50;99547.59;;;3.74;100.00
48968;BME280;46511;53.148;8.204;2024-01-15T04:38:22;99551.75;;;3.78;100.00
48968;BME280;46511;53.148;8.204;2024-01-15T04:40:53;99545.13;;;3.71;100.00
48968;BME280;46511;53.148;8.204;2024-01-15T04:43:25;99545.38;;;3.84;100.00
48968;BME280;46511;53.148;8.204;2024-01-15T04:45:56;99541.28;;;3.59;100.00
48968;BME280;46511;53.148;8.204;2024-01-15T04:48:27;99550.91;;;3.78;100.00
48968;BME280;46511;53.148;8.204;2024-01-15T04:50:59;99557.53;;;3.67;100.00
48968;BME280;46511;53.148;8.204;2024-01-15T04:53:31;99559.81;;;3.56;100.00
48968;BME280;46511;53.148;8.204;2024-01-15T04:56:02;99561.28;;;3.81;100.00
48968;BME280;46511;53.148;8.204;2024-01-15T04:58:34;99557.16;;;3.75;100.00
48968;BME280;46511;53.148;8.204;2024-01-15T05:01:05;99549.09;;;3.80;100.00
48968;BME280;46511;53.148;8.204;2024-01-15T05:03:36;99536.06;;;3.77;100.00
48968;BME280;46511;53.148;8.204;2024-01-15T05:06:08;99547.34;;;3.79;100.00
48968;BME280;46511;53.148;8.204;2024-01-15T05:08:39;99540.84;;;3.68;100.00
48968;BME280;46511;53.148;8.204;2024-01-15T05:11:11;99537.25;;;3.71;100.00
48968;BME280;46511;53.148;8.204;2024-01-15T05:13:42;99540.72;;;3.71;100.00
48968;BME280;46511;53.148;8.204;2024-01-15T05:16:13;99549.97;;;3.61;100.00
48968;BME280;46511;53.148;8.204;2024-01-15T05:18:45;99564.53;;;3.86;100.00
48968;BME280;46511;53.148;8.204;2024-01-15T05:21:16;99548.63;;;3.89;100.00
48968;BME280;46511;53.148;8.204;2024-01-15T05:23:47;99534.94;;;3.46;100.00
48968;BME280;46511;53.148;8.204;2024-01-15T05:26:19;99540.06;;;4.03;100.00
48968;BME280;46511;53.148;8.204;2024-01-15T05:28:50;99539.56;;;3.77;100.00
48968;BME280;46511;53.148;8.204;2024-01-15T05:31:16;99543.47;;;3.68;100.00
48968;BME280;46511;53.148;8.204;2024-01-15T05:33:48;99541.34;;;3.94;100.00
48968;BME280;46511;53.148;8.204;2024-01-15T05:36:19;99539.72;;;3.74;100.00
48968;BME280;46511;53.148;8.204;2024-01-15T05:38:50;99535.38;;;3.37;100.00
48968;BME280;46511;53.148;8.204;2024-01-15T05:41:22;99541.13;;;3.81;100.00
48968;BME280;46511;53.148;8.204;2024-01-15T05:43:53;99534.69;;;3.87;100.00
48968;BME280;46511;53.148;8.204;2024-01-15T05:46:24;99540.41;;;3.78;100.00
48968;BME280;46511;53.148;8.204;2024-01-15T05:48:55;99545.44;;;3.46;100.00
48968;BME280;46511;53.148;8.204;2024-01-15T05:51:27;99543.06;;;3.59;100.00
48968;BME280;46511;53.148;8.204;2024-01-15T05:53:58;99547.78;;;3.69;100.00
48968;BME280;46511;53.148;8.204;2024-01-15T05:56:29;99544.78;;;3.22;100.00
48968;BME280;46511;53.148;8.204;2024-01-15T05:59:01;99530.22;;;3.71;100.00
48968;BME280;46511;53.148;8.204;2024-01-15T06:01:32;99542.53;;;3.69;100.00
48968;BME280;46511;53.148;8.204;2024-01-15T06:04:03;99550.25;;;3.18;100.00
48968;BME280;46511;53.148;8.204;2024-01-15T06:06:35;99546.13;;;3.12;100.00
48968;BME280;46511;53.148;8.204;2024-01-15T06:09:06;99550.25;;;3.55;100.00
48968;BME280;46511;53.148;8.204;2024-01-15T06:11:38;99535.69;;;3.48;100.00
48968;BME280;46511;53.148;8.204;2024-01-15T06:14:09;99530.13;;;3.37;100.00
48968;BME280;46511;53.148;8.204;2024-01-15T06:16:40;99529.53;;;3.85;100.00
48968;BME280;46511;53.148;8.204;2024-01-15T06:19:12;99526.78;;;3.69;100.00
48968;BME280;46511;53.148;8.204;2024-01-15T06:21:43;99533.16;;;3.83;100.00
48968;BME280;46511;53.148;8.204;2024-01-15T06:24:15;99528.97;;;3.61;100.00
48968;BME280;46511;53.148;8.204;2024-01-15T06:26:48;99521.38;;;3.55;100.00
48968;BME280;46511;53.148;8.204;2024-01-15T06:29:15;99530.50;;;3.65;100.00
48968;BME280;46511;53.148;8.204;2024-01-15T06:31:41;99530.13;;;3.73;100.00
48968;BME280;46511;53.148;8.204;2024-01-15T06:34:14;99524.34;;;3.84;100.00
48968;BME280;46511;53.148;8.204;2024-01-15T06:36:46;99527.44;;;3.75;100.00
48968;BME280;46511;53.148;8.204;2024-01-15T06:39:17;99526.50;;;3.76;100.00
48968;BME280;46511;53.148;8.204;2024-01-15T06:41:48;99542.03;;;3.97;100.00
48968;BME280;46511;53.148;8.204;2024-01-15T06:44:15;99542.97;;;3.43;100.00
48968;BME280;46511;53.148;8.204;2024-01-15T06:46:47;99542.44;;;3.90;100.00
48968;BME280;46511;53.148;8.204;2024-01-15T06:49:19;99553.56;;;3.95;100.00
48968;BME280;46511;53.148;8.204;2024-01-15T06:51:50;99547.84;;;4.04;100.00
48968;BME280;46511;53.148;8.204;2024-01-15T06:54:21;99543.56;;;4.38;100.00
48968;BME280;46511;53.148;8.204;2024-01-15T06:56:53;99553.72;;;3.92;100.00
48968;BME280;46511;53.148;8.204;2024-01-15T06:59:24;99555.06;;;3.64;100.00
48968;BME280;46511;53.148;8.204;2024-01-15T07:01:55;99539.81;;;3.90;100.00
48968;BME280;46511;53.148;8.204;2024-01-15T07:04:27;99547.38;;;3.60;100.00
48968;BME280;46511;53.148;8.204;2024-01-15T07:06:58;99545.25;;;3.32;100.00
48968;BME280;46511;53.148;8.204;2024-01-15T07:09:29;99540.84;;;3.32;100.00
48968;BME280;46511;53.148;8.204;2024-01-15T07:12:00;99543.72;;;3.45;100.00
48968;BME280;46511;53.148;8.204;2024-01-15T07:14:32;99552.47;;;3.82;100.00
48968;BME280;46511;53.148;8.204;2024-01-15T07:17:03;99547.06;;;3.85;100.00
48968;BME280;46511;53.148;8.204;2024-01-15T07:19:34;99553.47;;;3.96;100.00
48968;BME280;46511;53.148;8.204;2024-01-15T07:22:01;99551.25;;;4.06;100.00
48968;BME280;46511;53.148;8.204;2024-01-15T07:24:32;99556.97;;;3.80;100.00
48968;BME280;46511;53.148;8.204;2024-01-15T07:27:05;99564.38;;;3.53;100.00
48968;BME280;46511;53.148;8.204;2024-01-15T07:29:37;99560.44;;;3.80;100.00
48968;BME280;46511;53.148;8.204;2024-01-15T07:32:04;99569.88;;;3.65;100.00
48968;BME280;46511;53.148;8.204;2024-01-15T07:34:36;99556.56;;;3.70;100.00
48968;BME280;46511;53.148;8.204;2024-01-15T07:37:07;99563.44;;;3.72;100.00
48968;BME280;46511;53.148;8.204;2024-01-15T07:39:39;99565.28;;;3.70;100.00
48968;BME280;46511;53.148;8.204;2024-01-15T07:42:10;99565.09;;;3.92;100.00
48968;BME280;46511;53.148;8.204;2024-01-15T07:44:41;99577.09;;;3.98;100.00
48968;BME280;46511;53.148;8.204;2024-01-15T07:47:13;99575.81;;;3.88;100.00
48968;BME280;46511;53.148;8.204;2024-01-15T07:49:44;99580.44;;;3.83;100.00
48968;BME280;46511;53.148;8.204;2024-01-15T07:52:15;99582.59;;;3.75;100.00
48968;BME280;46511;53.148;8.204;2024-01-15T07:54:47;99576.63;;;3.71;100.00
48968;BME280;46511;53.148;8.204;2024-01-15T07:57:18;99577.09;;;3.43;100.00
48968;BME280;46511;53.148;8.204;2024-01-15T07:59:49;99580.47;;;3.64;100.00
48968;BME280;46511;53.148;8.204;2024-01-15T08:02:22;99571.09;;;3.58;100.00
48968;BME280;46511;53.148;8.204;2024-01-15T08:04:53;99570.75;;;3.28;100.00
48968;BME280;46511;53.148;8.204;2024-01-15T08:07:25;99572.22;;;3.71;100.00
48968;BME280;46511;53.148;8.204;2024-01-15T08:09:57;99583.19;;;3.43;100.00
48968;BME280;46511;53.148;8.204;2024-01-15T08:12:29;99577.28;;;3.57;100.00
48968;BME280;46511;53.148;8.204;2024-01-15T08:15:00;99581.69;;;3.38;100.00
48968;BME280;46511;53.148;8.204;2024-01-15T08:17:32;99579.06;;;3.57;100.00
48968;BME280;46511;53.148;8.204;2024-01-15T08:20:03;99582.41;;;3.60;100.00
48968;BME280;46511;53.148;8.204;2024-01-15T08:22:36;99592.09;;;3.58;100.00
48968;BME280;46511;53.148;8.204;2024-01-15T08:25:08;99583.25;;;3.97;100.00
48968;BME280;46511;53.148;8.204;2024-01-15T08:27:40;99581.03;;;4.24;100.00
48968;BME280;46511;53.148;8.204;2024-01-15T08:30:11;99575.56;;;4.46;100.00
48968;BME280;46511;53.148;8.204;2024-01-15T08:32:43;99569.66;;;4.58;100.00
48968;BME280;46511;53.148;8.204;2024-01-15T08:35:14;99577.44;;;5.10;100.00
48968;BME280;46511;53.148;8.204;2024-01-15T08:37:45;99567.06;;;5.71;100.00
48968;BME280;46511;53.148;8.204;2024-01-15T08:40:17;99580.47;;;4.86;100.00
48968;BME280;46511;53.148;8.204;2024-01-15T08:42:48;99573.94;;;4.09;100.00
48968;BME280;46511;53.148;8.204;2024-01-15T08:45:20;99577.72;;;4.20;100.00
48968;BME280;46511;53.148;8.204;2024-01-15T08:47:52;99575.09;;;4.20;100.00
48968;BME280;46511;53.148;8.204;2024-01-15T08:50:24;99580.28;;;4.39;100.00
48968;BME280;46511;53.148;8.204;2024-01-15T08:52:55;99575.00;;;4.39;100.00
48968;BME280;46511;53.148;8.204;2024-01-15T08:55:26;99567.19;;;4.03;100.00
48968;BME280;46511;53.148;8.204;2024-01-15T08:57:58;99570.00;;;4.17;100.00
48968;BME280;46511;53.148;8.204;2024-01-15T09:00:29;99576.00;;;4.02;100.00
48968;BME280;46511;53.148;8.204;2024-01-15T09:03:01;99581.13;;;4.40;100.00
48968;BME280;46511;53.148;8.204;2024-01-15T09:05:33;99585.91;;;4.49;100.00
48968;BME280;46511;53.148;8.204;2024-01-15T09:08:04;99582.28;;;4.51;100.00
48968;BME280;46511;53.148;8.204;2024-01-15T09:10:36;99592.31;;;4.26;100.00
48968;BME280;46511;53.148;8.204;2024-01-15T09:13:07;99591.19;;;3.95;100.00
48968;BME280;46511;53.148;8.204;2024-01-15T09:15:39;99588.44;;;4.16;100.00
48968;BME280;46511;53.148;8.204;2024-01-15T09:18:10;99581.97;;;3.87;100.00
48968;BME280;46511;53.148;8.204;2024-01-15T09:20:37;99588.13;;;3.68;100.00
48968;BME280;46511;53.148;8.204;2024-01-15T09:23:04;99591.19;;;3.59;100.00
48968;BME280;46511;53.148;8.204;2024-01-15T09:25:35;99586.41;;;3.67;100.00
48968;BME280;46511;53.148;8.204;2024-01-15T09:28:02;99591.66;;;3.67;100.00
48968;BME280;46511;53.148;8.204;2024-01-15T09:30:34;99583.78;;;3.67;100.00
48968;BME280;46511;53.148;8.204;2024-01-15T09:33:01;99574.69;;;3.75;100.00
48968;BME280;46511;53.148;8.204;2024-01-15T09:35:32;99584.09;;;3.97;100.00
48968;BME280;46511;53.148;8.204;2024-01-15T09:38:03;99582.53;;;3.38;100.00
48968;BME280;46511;53.148;8.204;2024-01-15T09:40:31;99595.31;;;3.65;100.00
48968;BME280;46511;53.148;8.204;2024-01-15T09:43:04;99590.97;;;3.64;100.00
48968;BME280;46511;53.148;8.204;2024-01-15T09:45:36;99602.06;;;3.70;100.00
48968;BME280;46511;53.148;8.204;2024-01-15T09:48:07;99594.44;;;4.37;100.00
48968;BME280;46511;53.148;8.204;2024-01-15T09:50:39;99597.84;;;4.56;100.00
48968;BME280;46511;53.148;8.204;2024-01-15T09:53:10;99602.94;;;4.42;100.00
48968;BME280;46511;53.148;8.204;2024-01-15T09:55:44;99603.84;;;4.41;100.00
48968;BME280;46511;53.148;8.204;2024-01-15T09:58:16;99614.66;;;4.00;100.00
48968;BME280;46511;53.148;8.204;2024-01-15T10:00:42;99618.16;;;3.82;100.00
48968;BME280;46511;53.148;8.204;2024-01-15T10:03:15;99620.59;;;3.09;100.00
48968;BME280;46511;53.148;8.204;2024-01-15T10:05:46;99612.88;;;3.06;100.00
48968;BME280;46511;53.148;8.204;2024-01-15T10:08:15;99617.66;;;3.55;100.00
48968;BME280;46511;53.148;8.204;2024-01-15T10:10:47;99615.22;;;3.69;100.00
48968;BME280;46511;53.148;8.204;2024-01-15T10:13:13;99602.03;;;4.07;100.00
48968;BME280;46511;53.148;8.204;2024-01-15T10:15:46;99620.03;;;3.97;100.00
48968;BME280;46511;53.148;8.204;2024-01-15T10:18:16;99608.47;;;4.01;100.00
48968;BME280;46511;53.148;8.204;2024-01-15T10:20:47;99596.63;;;3.92;100.00
48968;BME280;46511;53.148;8.204;2024-01-15T10:23:19;99604.69;;;3.70;100.00
48968;BME280;46511;53.148;8.204;2024-01-15T10:25:46;99600.91;;;4.29;100.00
48968;BME280;46511;53.148;8.204;2024-01-15T10:28:18;99608.31;;;4.21;100.00
48968;BME280;46511;53.148;8.204;2024-01-15T10:30:51;99608.63;;;4.15;100.00
48968;BME280;46511;53.148;8.204;2024-01-15T10:33:25;99598.31;;;4.47;100.00
48968;BME280;46511;53.148;8.204;2024-01-15T10:35:55;99592.25;;;4.27;100.00
48968;BME280;46511;53.148;8.204;2024-01-15T10:38:28;99591.22;;;4.13;100.00
48968;BME280;46511;53.148;8.204;2024-01-15T10:40:54;99600.59;;;3.82;100.00
48968;BME280;46511;53.148;8.204;2024-01-15T10:43:26;99596.84;;;4.05;100.00
48968;BME280;46511;53.148;8.204;2024-01-15T10:45:58;99599.88;;;3.79;100.00
48968;BME280;46511;53.148;8.204;2024-01-15T10:48:26;99595.81;;;3.54;100.00
48968;BME280;46511;53.148;8.204;2024-01-15T10:50:59;99594.78;;;3.76;100.00
48968;BME280;46511;53.148;8.204;2024-01-15T10:53:30;99584.88;;;3.44;100.00
48968;BME280;46511;53.148;8.204;2024-01-15T10:56:04;99604.22;;;4.16;100.00
48968;BME280;46511;53.148;8.204;2024-01-15T10:58:31;99594.00;;;3.73;100.00
48968;BME280;46511;53.148;8.204;2024-01-15T11:00:57;99584.22;;;4.65;100.00
48968;BME280;46511;53.148;8.204;2024-01-15T11:03:24;99585.34;;;4.25;100.00
48968;BME280;46511;53.148;8.204;2024-01-15T11:05:55;99584.81;;;4.36;100.00
48968;BME280;46511;53.148;8.204;2024-01-15T11:08:22;99587.91;;;4.78;100.00
48968;BME280;46511;53.148;8.204;2024-01-15T11:10:58;99576.41;;;4.97;100.00
48968;BME280;46511;53.148;8.204;2024-01-15T11:16:04;99578.00;;;5.32;100.00
48968;BME280;46511;53.148;8.204;2024-01-15T11:18:42;99588.09;;;5.24;100.00
48968;BME280;46511;53.148;8.204;2024-01-15T11:21:27;99582.94;;;5.38;100.00
48968;BME280;46511;53.148;8.204;2024-01-15T11:23:56;99576.84;;;4.72;100.00
48968;BME280;46511;53.148;8.204;2024-01-15T11:26:28;99579.97;;;4.96;100.00
48968;BME280;46511;53.148;8.204;2024-01-15T11:29:05;99573.63;;;4.32;100.00
48968;BME280;46511;53.148;8.204;2024-01-15T11:34:08;99575.66;;;3.91;100.00
48968;BME280;46511;53.148;8.204;2024-01-15T11:41:59;99576.28;;;3.41;100.00
48968;BME280;46511;53.148;8.204;2024-01-15T11:44:27;99586.72;;;3.61;100.00
48968;BME280;46511;53.148;8.204;2024-01-15T11:47:00;99580.16;;;3.89;100.00
48968;BME280;46511;53.148;8.204;2024-01-15T11:52:26;99586.75;;;4.32;100.00
48968;BME280;46511;53.148;8.204;2024-01-15T11:55:02;99578.38;;;4.07;100.00
48968;BME280;46511;53.148;8.204;2024-01-15T11:57:51;99572.00;;;4.29;100.00
48968;BME280;46511;53.148;8.204;2024-01-15T12:00:24;99574.06;;;4.75;100.00
48968;BME280;46511;53.148;8.204;2024-01-15T12:02:51;99578.78;;;5.01;100.00
48968;BME280;46511;53.148;8.204;2024-01-15T12:05:18;99580.88;;;5.12;100.00
48968;BME280;46511;53.148;8.204;2024-01-15T12:07:50;99575.19;;;4.86;100.00
48968;BME280;46511;53.148;8.204;2024-01-15T12:10:20;99566.88;;;4.44;100.00
48968;BME280;46511;53.148;8.204;2024-01-15T12:15:49;99564.78;;;5.01;100.00
48968;BME280;46511;53.148;8.204;2024-01-15T12:18:17;99557.28;;;5.26;100.00
48968;BME280;46511;53.148;8.204;2024-01-15T12:20:48;99565.88;;;4.97;100.00
48968;BME280;46511;53.148;8.204;2024-01-15T12:23:28;99567.31;;;5.35;100.00
48968;BME280;46511;53.148;8.204;2024-01-15T12:25:58;99574.84;;;5.26;100.00
48968;BME280;46511;53.148;8.204;2024-01-15T12:28:27;99571.81;;;4.84;100.00
48968;BME280;46511;53.148;8.204;2024-01-15T12:30:55;99569.50;;;4.61;100.00
48968;BME280;46511;53.148;8.204;2024-01-15T12:33:27;99579.34;;;5.24;100.00
48968;BME280;46511;53.148;8.204;2024-01-15T12:35:57;99582.22;;;5.19;100.00
48968;BME280;46511;53.148;8.204;2024-01-15T12:38:23;99586.78;;;4.82;100.00
48968;BME280;46511;53.148;8.204;2024-01-15T12:40:49;99585.78;;;5.18;100.00
48968;BME280;46511;53.148;8.204;2024-01-15T12:43:17;99581.25;;;4.71;100.00
48968;BME280;46511;53.148;8.204;2024-01-15T12:45:46;99576.47;;;4.62;100.00
48968;BME280;46511;53.148;8.204;2024-01-15T12:48:12;99588.16;;;4.74;100.00
48968;BME280;46511;53.148;8.204;2024-01-15T12:50:42;99588.91;;;5.09;100.00
48968;BME280;46511;53.148;8.204;2024-01-15T12:53:09;99590.69;;;4.23;100.00
48968;BME280;46511;53.148;8.204;2024-01-15T12:55:36;99598.44;;;4.44;100.00
48968;BME280;46511;53.148;8.204;2024-01-15T12:58:06;99592.53;;;4.04;100.00
48968;BME280;46511;53.148;8.204;2024-01-15T13:00:36;99591.75;;;4.02;100.00
48968;BME280;46511;53.148;8.204;2024-01-15T13:03:06;99589.75;;;4.76;100.00
48968;BME280;46511;53.148;8.204;2024-01-15T13:05:33;99595.59;;;4.99;100.00
48968;BME280;46511;53.148;8.204;2024-01-15T13:08:02;99579.91;;;5.93;100.00
48968;BME280;46511;53.148;8.204;2024-01-15T13:10:29;99592.03;;;5.96;100.00
48968;BME280;46511;53.148;8.204;2024-01-15T13:12:56;99589.91;;;6.03;100.00
48968;BME280;46511;53.148;8.204;2024-01-15T13:15:22;99592.66;;;5.69;100.00
48968;BME280;46511;53.148;8.204;2024-01-15T13:17:50;99595.50;;;4.67;100.00
48968;BME280;46511;53.148;8.204;2024-01-15T13:20:17;99597.25;;;4.84;100.00
48968;BME280;46511;53.148;8.204;2024-01-15T13:22:48;99608.25;;;4.75;100.00
48968;BME280;46511;53.148;8.204;2024-01-15T13:25:21;99612.22;;;4.66;100.00
48968;BME280;46511;53.148;8.204;2024-01-15T13:27:47;99619.31;;;4.81;100.00
48968;BME280;46511;53.148;8.204;2024-01-15T13:30:19;99625.66;;;4.60;100.00
48968;BME280;46511;53.148;8.204;2024-01-15T13:32:45;99632.16;;;4.87;100.00
48968;BME280;46511;53.148;8.204;2024-01-15T13:35:12;99629.34;;;4.21;100.00